Jordan, Wisconsin
Current Conditions -  °F | °C
As of 7:55 AM on Friday 31 Oct 2014 (Local Time) from KSTE Reporting Station
Clear Clear  
Wind Chill: 15°   Ceiling: Unl
Heat Index: 28°   Visibility: 10mi
Dew Point: 20°   Wind: 17mph
Humidity: 74%   Direction: 350°N
Pressure: 30.3"   Gusts: 26mph
Location:  44.5531°N, 89.5186°W
Report Text: KSTE 311255Z AUTO 35015G23KT 10SM CLR M02/M06 A3030 RMK AO2 T10251065
Loading
Personal Weather Stations






























Interactive Weather Map
Tropical Storm Tracking
New forecast layout! Learn more

10-Day Weather Forecast

Advertisements
Track Severe Weather on mobile